DLH2020 EDDH-LPFR
Flight info
| Callsign | DLH2020 |
|---|---|
| Flight time | 1h 40m |
| Altitude | 60000 |
| Route | ELSOB3G ELSOB DCT OSTOR DCT CUXIE DCT ABFAD DCT AMCUB DCT HUNQI DCT UTIRA DCT PODOD DCT RODIR DCT LEGBA DCT MOTOX DCT BRILL DCT TEJOP DCT NEXEP DCT DEMOS DCT PT814 DCT MAZUK DCT 37N009W DCT GIMAL |
| Aircraft | CONC/H-SDE2E3FGHIRYW/X |
Departure
| Time | 2026-04-26 18:45 |
|---|---|
| Airport | Hamburg Helmut Schmidt Airport (EDDH) |
Arrival
| Time | 2026-04-26 20:25 |
|---|---|
| Airport | Faro - Gago Coutinho International Airport (LPFR) |
| Time | Latitude | Longitude | Altitude | Speed | Heading |
|---|---|---|---|---|---|
| 2026-04-26 18:14 | 53.62886 | 10.00230 | 54 ft | 0 kts | 124° |
| 2026-04-26 18:15 | 53.62888 | 10.00222 | 55 ft | 0 kts | 122° |
| 2026-04-26 18:22 | 53.62888 | 10.00221 | 55 ft | 0 kts | 122° |
| 2026-04-26 18:25 | 53.62889 | 10.00221 | 55 ft | 0 kts | 122° |
| 2026-04-26 18:37 | 53.62890 | 10.00216 | 55 ft | 3 kts | 122° |
| 2026-04-26 18:37 | 53.62905 | 10.00179 | 51 ft | 4 kts | 122° |
| 2026-04-26 18:38 | 53.62916 | 10.00149 | 54 ft | 4 kts | 133° |
| 2026-04-26 18:38 | 53.62936 | 10.00127 | 51 ft | 4 kts | 186° |
| 2026-04-26 18:38 | 53.62947 | 10.00132 | 49 ft | 3 kts | 212° |
| 2026-04-26 18:40 | 53.62930 | 10.00114 | 53 ft | 4 kts | 212° |
| 2026-04-26 18:41 | 53.62914 | 10.00085 | 53 ft | 2 kts | 234° |
| 2026-04-26 18:41 | 53.62912 | 10.00065 | 55 ft | 3 kts | 256° |
| 2026-04-26 18:41 | 53.62911 | 10.00034 | 55 ft | 2 kts | 266° |
| 2026-04-26 18:41 | 53.62912 | 10.00014 | 55 ft | 1 kts | 270° |
| 2026-04-26 18:42 | 53.62909 | 9.99993 | 55 ft | 4 kts | 261° |
| 2026-04-26 18:42 | 53.62897 | 9.99930 | 54 ft | 6 kts | 249° |
| 2026-04-26 18:42 | 53.62876 | 9.99852 | 53 ft | 8 kts | 246° |
| 2026-04-26 18:42 | 53.62874 | 9.99754 | 52 ft | 8 kts | 295° |
| 2026-04-26 18:43 | 53.62911 | 9.99705 | 51 ft | 6 kts | 327° |
| 2026-04-26 18:43 | 53.62922 | 9.99694 | 51 ft | 0 kts | 329° |
| 2026-04-26 18:44 | 53.63024 | 9.99602 | 52 ft | 60 kts | 333° |
| 2026-04-26 18:44 | 53.63757 | 9.98972 | 50 ft | 174 kts | 333° |
| 2026-04-26 18:45 | 53.65108 | 9.97873 | 595 ft | 247 kts | 335° |
| 2026-04-26 18:45 | 53.66637 | 9.96682 | 1352 ft | 239 kts | 330° |
| 2026-04-26 18:45 | 53.68096 | 9.95274 | 2141 ft | 244 kts | 327° |
| 2026-04-26 18:45 | 53.69556 | 9.93833 | 2896 ft | 249 kts | 327° |
| 2026-04-26 18:46 | 53.70785 | 9.91817 | 3694 ft | 250 kts | 291° |
| 2026-04-26 18:46 | 53.71051 | 9.88975 | 4572 ft | 249 kts | 264° |
| 2026-04-26 18:46 | 53.70757 | 9.86066 | 5409 ft | 254 kts | 256° |
| 2026-04-26 18:46 | 53.70260 | 9.83172 | 6217 ft | 259 kts | 253° |
| 2026-04-26 18:47 | 53.69685 | 9.80269 | 7001 ft | 263 kts | 253° |
| 2026-04-26 18:47 | 53.69085 | 9.77329 | 7743 ft | 267 kts | 254° |
| 2026-04-26 18:47 | 53.68487 | 9.74341 | 8525 ft | 271 kts | 255° |
| 2026-04-26 18:47 | 53.67897 | 9.71338 | 9301 ft | 276 kts | 255° |
| 2026-04-26 18:48 | 53.67283 | 9.68185 | 9716 ft | 288 kts | 255° |
| 2026-04-26 18:48 | 53.66659 | 9.65012 | 10282 ft | 283 kts | 255° |
| 2026-04-26 18:48 | 53.66192 | 9.61651 | 11042 ft | 307 kts | 276° |
| 2026-04-26 18:48 | 53.66571 | 9.57955 | 11882 ft | 337 kts | 289° |
| 2026-04-26 18:49 | 53.67379 | 9.54036 | 12697 ft | 371 kts | 294° |
| 2026-04-26 18:49 | 53.68401 | 9.49841 | 13527 ft | 403 kts | 295° |
| 2026-04-26 18:49 | 53.69594 | 9.45372 | 14345 ft | 430 kts | 298° |
| 2026-04-26 18:49 | 53.71017 | 9.40904 | 15508 ft | 432 kts | 300° |
| 2026-04-26 18:50 | 53.72504 | 9.36460 | 16831 ft | 438 kts | 301° |
| 2026-04-26 18:50 | 53.74027 | 9.31957 | 18316 ft | 446 kts | 300° |
| 2026-04-26 18:50 | 53.75556 | 9.27418 | 19659 ft | 455 kts | 300° |
| 2026-04-26 18:50 | 53.77127 | 9.22728 | 21123 ft | 461 kts | 300° |
| 2026-04-26 18:51 | 53.78716 | 9.17971 | 22698 ft | 468 kts | 300° |
| 2026-04-26 18:51 | 53.80321 | 9.13160 | 24280 ft | 472 kts | 299° |
| 2026-04-26 18:51 | 53.81951 | 9.08211 | 25728 ft | 491 kts | 299° |
| 2026-04-26 18:51 | 53.83768 | 9.03195 | 27251 ft | 509 kts | 303° |
| 2026-04-26 18:52 | 53.85779 | 8.98136 | 28861 ft | 526 kts | 303° |
| 2026-04-26 18:52 | 53.87589 | 8.92590 | 29758 ft | 548 kts | 289° |
| 2026-04-26 18:52 | 53.88399 | 8.86225 | 30653 ft | 562 kts | 272° |
| 2026-04-26 18:52 | 53.88225 | 8.79607 | 31488 ft | 580 kts | 265° |
| 2026-04-26 18:53 | 53.87723 | 8.72710 | 32309 ft | 598 kts | 264° |
| 2026-04-26 18:53 | 53.87308 | 8.65616 | 33127 ft | 612 kts | 268° |
| 2026-04-26 18:53 | 53.87003 | 8.58328 | 34014 ft | 628 kts | 268° |
| 2026-04-26 18:53 | 53.86703 | 8.50873 | 35048 ft | 642 kts | 268° |
| 2026-04-26 18:54 | 53.86392 | 8.43243 | 36062 ft | 658 kts | 268° |
| 2026-04-26 18:54 | 53.86064 | 8.35408 | 37115 ft | 676 kts | 268° |
| 2026-04-26 18:54 | 53.85719 | 8.27335 | 37988 ft | 698 kts | 268° |
| 2026-04-26 18:54 | 53.85356 | 8.19009 | 38901 ft | 720 kts | 268° |
| 2026-04-26 18:55 | 53.84975 | 8.10422 | 39652 ft | 742 kts | 267° |
| 2026-04-26 18:55 | 53.84583 | 8.01710 | 40403 ft | 762 kts | 267° |
| 2026-04-26 18:55 | 53.84168 | 7.92647 | 41198 ft | 781 kts | 267° |
| 2026-04-26 18:55 | 53.83736 | 7.83359 | 41851 ft | 804 kts | 267° |
| 2026-04-26 18:56 | 53.83282 | 7.73773 | 42406 ft | 829 kts | 266° |
| 2026-04-26 18:56 | 53.82806 | 7.63904 | 42973 ft | 856 kts | 266° |
| 2026-04-26 18:56 | 53.82306 | 7.53702 | 43550 ft | 884 kts | 266° |
| 2026-04-26 18:56 | 53.81781 | 7.43166 | 44153 ft | 913 kts | 266° |
| 2026-04-26 18:57 | 53.81228 | 7.32293 | 44762 ft | 942 kts | 266° |
| 2026-04-26 18:57 | 53.80847 | 7.24900 | 45155 ft | 962 kts | 266° |
| 2026-04-26 18:57 | 53.80046 | 7.09667 | 45918 ft | 980 kts | 266° |
| 2026-04-26 18:57 | 53.79427 | 6.98124 | 46739 ft | 989 kts | 265° |
| 2026-04-26 18:58 | 53.78791 | 6.86493 | 47556 ft | 997 kts | 265° |
| 2026-04-26 18:58 | 53.78140 | 6.74781 | 48356 ft | 1005 kts | 265° |
| 2026-04-26 18:58 | 53.77481 | 6.63143 | 49160 ft | 1011 kts | 265° |
| 2026-04-26 18:58 | 53.76750 | 6.51295 | 49972 ft | 1016 kts | 262° |
| 2026-04-26 18:59 | 53.75195 | 6.39624 | 50892 ft | 1022 kts | 252° |
| 2026-04-26 18:59 | 53.72523 | 6.28479 | 51848 ft | 1027 kts | 243° |
| 2026-04-26 18:59 | 53.69003 | 6.17970 | 52743 ft | 1031 kts | 240° |
| 2026-04-26 18:59 | 53.65221 | 6.07672 | 53577 ft | 1034 kts | 239° |
| 2026-04-26 19:00 | 53.61426 | 5.97366 | 53913 ft | 1040 kts | 242° |
| 2026-04-26 19:00 | 53.58307 | 5.86371 | 54241 ft | 1041 kts | 247° |
| 2026-04-26 19:00 | 53.55131 | 5.75430 | 55125 ft | 1042 kts | 245° |
| 2026-04-26 19:00 | 53.51957 | 5.64500 | 55966 ft | 1042 kts | 245° |
| 2026-04-26 19:01 | 53.49167 | 5.53291 | 56887 ft | 1037 kts | 254° |
| 2026-04-26 19:01 | 53.47479 | 5.41741 | 57874 ft | 1031 kts | 263° |
| 2026-04-26 19:01 | 53.46637 | 5.29830 | 58800 ft | 1027 kts | 266° |
| 2026-04-26 19:01 | 53.45934 | 5.17904 | 59647 ft | 1026 kts | 261° |
| 2026-04-26 19:02 | 53.44504 | 5.06178 | 60173 ft | 1028 kts | 257° |
| 2026-04-26 19:02 | 53.42511 | 4.94655 | 60381 ft | 1033 kts | 249° |
| 2026-04-26 19:02 | 53.39481 | 4.83700 | 60551 ft | 1039 kts | 239° |
| 2026-04-26 19:02 | 53.36918 | 4.76937 | 60605 ft | 1043 kts | 233° |
| 2026-04-26 19:03 | 53.25102 | 4.56350 | 60481 ft | 1059 kts | 224° |
| 2026-04-26 19:03 | 53.19671 | 4.47973 | 59787 ft | 1071 kts | 224° |
| 2026-04-26 19:03 | 53.14439 | 4.39259 | 58997 ft | 1081 kts | 231° |
| 2026-04-26 19:04 | 53.09860 | 4.29316 | 58335 ft | 1087 kts | 236° |
| 2026-04-26 19:04 | 53.05304 | 4.19200 | 57606 ft | 1101 kts | 229° |
| 2026-04-26 19:04 | 52.99848 | 4.10167 | 57003 ft | 1115 kts | 220° |
| 2026-04-26 19:04 | 52.93695 | 4.02206 | 56276 ft | 1129 kts | 217° |
| 2026-04-26 19:05 | 52.80761 | 3.86959 | 55407 ft | 1149 kts | 219° |
| 2026-04-26 19:05 | 52.74654 | 3.78481 | 56124 ft | 1145 kts | 220° |
| 2026-04-26 19:05 | 52.68474 | 3.70282 | 57273 ft | 1137 kts | 221° |
| 2026-04-26 19:06 | 52.62462 | 3.61966 | 58141 ft | 1122 kts | 220° |
| 2026-04-26 19:06 | 52.56435 | 3.53845 | 58961 ft | 1118 kts | 220° |
| 2026-04-26 19:06 | 52.50435 | 3.45738 | 59733 ft | 1117 kts | 220° |
| 2026-04-26 19:06 | 52.44502 | 3.37761 | 60055 ft | 1119 kts | 220° |
| 2026-04-26 19:07 | 52.38470 | 3.29681 | 60198 ft | 1123 kts | 220° |
| 2026-04-26 19:07 | 52.26318 | 3.13492 | 60279 ft | 1131 kts | 220° |
| 2026-04-26 19:08 | 52.14072 | 2.97297 | 60304 ft | 1134 kts | 220° |
| 2026-04-26 19:08 | 52.01768 | 2.81143 | 60297 ft | 1139 kts | 220° |
| 2026-04-26 19:09 | 51.89503 | 2.65158 | 60303 ft | 1140 kts | 220° |
| 2026-04-26 19:09 | 51.77101 | 2.49111 | 60277 ft | 1142 kts | 219° |
| 2026-04-26 19:10 | 51.64661 | 2.33131 | 60287 ft | 1145 kts | 219° |
| 2026-04-26 19:10 | 51.52173 | 2.17204 | 60288 ft | 1147 kts | 219° |
| 2026-04-26 19:11 | 51.39718 | 2.01433 | 60282 ft | 1148 kts | 219° |
| 2026-04-26 19:11 | 51.27152 | 1.85637 | 60284 ft | 1150 kts | 219° |
| 2026-04-26 19:12 | 51.14553 | 1.69911 | 60275 ft | 1151 kts | 219° |
| 2026-04-26 19:12 | 51.01908 | 1.54241 | 60275 ft | 1152 kts | 219° |
| 2026-04-26 19:13 | 50.89913 | 1.37482 | 60398 ft | 1149 kts | 231° |
| 2026-04-26 19:13 | 50.81171 | 1.16429 | 60503 ft | 1146 kts | 247° |
| 2026-04-26 19:14 | 50.75633 | 0.93015 | 60366 ft | 1146 kts | 251° |
| 2026-04-26 19:14 | 50.70262 | 0.69336 | 60300 ft | 1147 kts | 250° |
| 2026-04-26 19:15 | 50.64657 | 0.45788 | 60273 ft | 1147 kts | 249° |
| 2026-04-26 19:15 | 50.57659 | 0.23183 | 60334 ft | 1150 kts | 245° |
| 2026-04-26 19:16 | 50.50573 | 0.00872 | 60273 ft | 1149 kts | 244° |
| 2026-04-26 19:16 | 50.43391 | -0.21546 | 60257 ft | 1148 kts | 244° |
| 2026-04-26 19:17 | 50.36164 | -0.43893 | 60247 ft | 1150 kts | 243° |
| 2026-04-26 19:17 | 50.28894 | -0.66166 | 60252 ft | 1150 kts | 243° |
| 2026-04-26 19:18 | 50.21623 | -0.88247 | 60242 ft | 1149 kts | 243° |
| 2026-04-26 19:18 | 50.14261 | -1.10405 | 60255 ft | 1151 kts | 243° |
| 2026-04-26 19:19 | 50.06863 | -1.32477 | 60244 ft | 1150 kts | 243° |
| 2026-04-26 19:19 | 49.99416 | -1.54501 | 60237 ft | 1149 kts | 243° |
| 2026-04-26 19:20 | 49.91929 | -1.76453 | 60236 ft | 1150 kts | 242° |
| 2026-04-26 19:20 | 49.84456 | -1.98178 | 60226 ft | 1150 kts | 242° |
| 2026-04-26 19:21 | 49.76891 | -2.19983 | 60218 ft | 1150 kts | 242° |
| 2026-04-26 19:21 | 49.69274 | -2.41730 | 60220 ft | 1150 kts | 244° |
| 2026-04-26 19:22 | 49.62278 | -2.63900 | 60237 ft | 1145 kts | 244° |
| 2026-04-26 19:22 | 49.58781 | -2.74832 | 60216 ft | 1128 kts | 244° |
| 2026-04-26 19:22 | 49.55344 | -2.85438 | 60209 ft | 1117 kts | 244° |
| 2026-04-26 19:23 | 49.48397 | -3.06783 | 60212 ft | 1116 kts | 244° |
| 2026-04-26 19:23 | 49.41396 | -3.28117 | 60225 ft | 1119 kts | 243° |
| 2026-04-26 19:24 | 49.34339 | -3.49447 | 60227 ft | 1123 kts | 243° |
| 2026-04-26 19:24 | 49.23688 | -3.81303 | 60216 ft | 1127 kts | 243° |
| 2026-04-26 19:25 | 49.17659 | -3.99159 | 60220 ft | 1129 kts | 243° |
| 2026-04-26 19:25 | 49.09232 | -4.23910 | 60206 ft | 1131 kts | 243° |
| 2026-04-26 19:26 | 49.01926 | -4.45179 | 60213 ft | 1134 kts | 243° |
| 2026-04-26 19:26 | 48.94622 | -4.66268 | 60218 ft | 1135 kts | 242° |
| 2026-04-26 19:27 | 48.87215 | -4.87478 | 60219 ft | 1136 kts | 242° |
| 2026-04-26 19:27 | 48.79125 | -5.08053 | 60356 ft | 1137 kts | 231° |
| 2026-04-26 19:28 | 48.67788 | -5.24723 | 60467 ft | 1143 kts | 215° |
| 2026-04-26 19:28 | 48.53743 | -5.35966 | 60458 ft | 1149 kts | 202° |
| 2026-04-26 19:29 | 48.46402 | -5.40337 | 60346 ft | 1150 kts | 202° |
| 2026-04-26 19:29 | 48.38991 | -5.44855 | 60278 ft | 1148 kts | 204° |
| 2026-04-26 19:29 | 48.24369 | -5.54592 | 60243 ft | 1150 kts | 205° |
| 2026-04-26 19:30 | 48.09859 | -5.64676 | 60225 ft | 1150 kts | 207° |
| 2026-04-26 19:30 | 47.98354 | -5.74568 | 60292 ft | 1150 kts | 210° |
| 2026-04-26 19:31 | 47.82262 | -5.88429 | 60256 ft | 1149 kts | 211° |
| 2026-04-26 19:31 | 47.68392 | -6.00314 | 60248 ft | 1150 kts | 211° |
| 2026-04-26 19:32 | 47.54525 | -6.12134 | 60233 ft | 1151 kts | 211° |
| 2026-04-26 19:32 | 47.40636 | -6.23906 | 60236 ft | 1150 kts | 210° |
| 2026-04-26 19:33 | 47.26827 | -6.35539 | 60233 ft | 1151 kts | 210° |
| 2026-04-26 19:33 | 47.12904 | -6.47198 | 60248 ft | 1151 kts | 210° |
| 2026-04-26 19:34 | 46.98976 | -6.58790 | 60247 ft | 1151 kts | 210° |
| 2026-04-26 19:34 | 46.85027 | -6.70330 | 60236 ft | 1152 kts | 210° |
| 2026-04-26 19:35 | 46.71166 | -6.81727 | 60244 ft | 1152 kts | 210° |
| 2026-04-26 19:35 | 46.57193 | -6.93150 | 60254 ft | 1152 kts | 210° |
| 2026-04-26 19:36 | 46.45572 | -7.02598 | 60239 ft | 1152 kts | 210° |
| 2026-04-26 19:36 | 46.29214 | -7.15817 | 60246 ft | 1152 kts | 210° |
| 2026-04-26 19:37 | 46.15210 | -7.27062 | 60244 ft | 1151 kts | 210° |
| 2026-04-26 19:37 | 46.01286 | -7.38179 | 60239 ft | 1152 kts | 210° |
| 2026-04-26 19:38 | 45.87270 | -7.49303 | 60241 ft | 1151 kts | 210° |
| 2026-04-26 19:38 | 45.73231 | -7.60381 | 60235 ft | 1151 kts | 210° |
| 2026-04-26 19:39 | 45.59184 | -7.71401 | 60238 ft | 1153 kts | 210° |
| 2026-04-26 19:39 | 45.45211 | -7.82301 | 60240 ft | 1151 kts | 210° |
| 2026-04-26 19:40 | 45.31145 | -7.93210 | 60235 ft | 1151 kts | 209° |
| 2026-04-26 19:40 | 45.17087 | -8.04052 | 60221 ft | 1151 kts | 209° |
| 2026-04-26 19:41 | 45.03018 | -8.14840 | 60236 ft | 1149 kts | 209° |
| 2026-04-26 19:41 | 44.91317 | -8.23767 | 60230 ft | 1151 kts | 209° |
| 2026-04-26 19:42 | 44.74948 | -8.36185 | 60220 ft | 1150 kts | 209° |
| 2026-04-26 19:42 | 44.60846 | -8.46819 | 60216 ft | 1149 kts | 209° |
| 2026-04-26 19:43 | 44.46743 | -8.57394 | 60217 ft | 1150 kts | 209° |
| 2026-04-26 19:43 | 44.32635 | -8.67916 | 60221 ft | 1149 kts | 209° |
| 2026-04-26 19:44 | 44.18518 | -8.78386 | 60212 ft | 1149 kts | 209° |
| 2026-04-26 19:44 | 44.04495 | -8.88730 | 60207 ft | 1149 kts | 209° |
| 2026-04-26 19:45 | 43.90368 | -8.99094 | 60194 ft | 1148 kts | 209° |
| 2026-04-26 19:45 | 43.76293 | -9.09366 | 60198 ft | 1146 kts | 209° |
| 2026-04-26 19:46 | 43.62173 | -9.19614 | 60196 ft | 1147 kts | 208° |
| 2026-04-26 19:46 | 43.48053 | -9.29808 | 60186 ft | 1145 kts | 208° |
| 2026-04-26 19:47 | 43.38691 | -9.36537 | 60176 ft | 1147 kts | 208° |
| 2026-04-26 19:47 | 43.19854 | -9.49916 | 60182 ft | 1146 kts | 205° |
| 2026-04-26 19:48 | 43.12411 | -9.53827 | 60301 ft | 1149 kts | 197° |
| 2026-04-26 19:48 | 43.04603 | -9.56248 | 60364 ft | 1153 kts | 188° |
| 2026-04-26 19:48 | 42.88559 | -9.56419 | 60402 ft | 1161 kts | 172° |
| 2026-04-26 19:49 | 42.72971 | -9.51100 | 60289 ft | 1166 kts | 165° |
| 2026-04-26 19:49 | 42.57293 | -9.45498 | 60156 ft | 1164 kts | 169° |
| 2026-04-26 19:50 | 42.41433 | -9.41186 | 60113 ft | 1161 kts | 174° |
| 2026-04-26 19:50 | 42.25355 | -9.39684 | 60194 ft | 1160 kts | 176° |
| 2026-04-26 19:51 | 42.09263 | -9.37982 | 60144 ft | 1160 kts | 176° |
| 2026-04-26 19:51 | 41.93281 | -9.36302 | 60109 ft | 1160 kts | 179° |
| 2026-04-26 19:52 | 41.77187 | -9.36715 | 60169 ft | 1158 kts | 182° |
| 2026-04-26 19:52 | 41.61055 | -9.37235 | 60119 ft | 1159 kts | 182° |
| 2026-04-26 19:53 | 41.44941 | -9.37749 | 60103 ft | 1159 kts | 182° |
| 2026-04-26 19:53 | 41.28821 | -9.38263 | 60094 ft | 1159 kts | 182° |
| 2026-04-26 19:54 | 41.12807 | -9.38774 | 60095 ft | 1158 kts | 182° |
| 2026-04-26 19:54 | 40.96692 | -9.39286 | 60088 ft | 1158 kts | 182° |
| 2026-04-26 19:55 | 40.80578 | -9.39795 | 60084 ft | 1158 kts | 182° |
| 2026-04-26 19:55 | 40.64476 | -9.40302 | 60085 ft | 1157 kts | 182° |
| 2026-04-26 19:56 | 40.48364 | -9.40807 | 60089 ft | 1157 kts | 182° |
| 2026-04-26 19:56 | 40.32368 | -9.41306 | 60087 ft | 1158 kts | 182° |
| 2026-04-26 19:57 | 40.16277 | -9.41805 | 60080 ft | 1157 kts | 182° |
| 2026-04-26 19:57 | 40.00170 | -9.42303 | 60078 ft | 1158 kts | 182° |
| 2026-04-26 19:58 | 39.84057 | -9.42798 | 60069 ft | 1158 kts | 182° |
| 2026-04-26 19:58 | 39.68058 | -9.43288 | 60073 ft | 1158 kts | 182° |
| 2026-04-26 19:59 | 39.51952 | -9.43778 | 60071 ft | 1158 kts | 182° |
| 2026-04-26 19:59 | 39.35854 | -9.44471 | 60100 ft | 1155 kts | 187° |
| 2026-04-26 20:00 | 39.19896 | -9.46946 | 60110 ft | 1156 kts | 187° |
| 2026-04-26 20:00 | 39.04027 | -9.49203 | 60071 ft | 1155 kts | 187° |
| 2026-04-26 20:01 | 38.88054 | -9.51428 | 60040 ft | 1154 kts | 187° |
| 2026-04-26 20:01 | 38.72086 | -9.53645 | 60037 ft | 1154 kts | 187° |
| 2026-04-26 20:02 | 38.56104 | -9.55490 | 60105 ft | 1154 kts | 180° |
| 2026-04-26 20:02 | 38.45514 | -9.54339 | 60202 ft | 1157 kts | 169° |
| 2026-04-26 20:03 | 38.25079 | -9.45983 | 60112 ft | 1163 kts | 160° |
| 2026-04-26 20:03 | 38.09987 | -9.38598 | 60035 ft | 1162 kts | 160° |
| 2026-04-26 20:04 | 37.94581 | -9.32579 | 60092 ft | 1160 kts | 166° |
| 2026-04-26 20:04 | 37.79003 | -9.27172 | 60071 ft | 1161 kts | 165° |
| 2026-04-26 20:05 | 37.63432 | -9.21759 | 60042 ft | 1160 kts | 165° |
| 2026-04-26 20:05 | 37.47962 | -9.16414 | 60045 ft | 1160 kts | 165° |
| 2026-04-26 20:06 | 37.32385 | -9.11059 | 60040 ft | 1160 kts | 166° |
| 2026-04-26 20:06 | 37.16824 | -9.05733 | 60040 ft | 1159 kts | 166° |
| 2026-04-26 20:07 | 37.01249 | -9.00400 | 60036 ft | 1161 kts | 163° |
| 2026-04-26 20:07 | 36.93686 | -8.96911 | 60144 ft | 1162 kts | 155° |
| 2026-04-26 20:07 | 36.86571 | -8.92112 | 60212 ft | 1164 kts | 147° |
| 2026-04-26 20:08 | 36.77481 | -8.83230 | 59999 ft | 1149 kts | 136° |
| 2026-04-26 20:08 | 36.72127 | -8.75972 | 59187 ft | 1128 kts | 128° |
| 2026-04-26 20:08 | 36.67750 | -8.67965 | 58292 ft | 1109 kts | 119° |
| 2026-04-26 20:09 | 36.64443 | -8.59395 | 57429 ft | 1089 kts | 110° |
| 2026-04-26 20:09 | 36.62259 | -8.50468 | 56549 ft | 1069 kts | 102° |
| 2026-04-26 20:09 | 36.61200 | -8.41413 | 55667 ft | 1049 kts | 93° |
| 2026-04-26 20:09 | 36.61242 | -8.32423 | 54403 ft | 1032 kts | 84° |
| 2026-04-26 20:10 | 36.62410 | -8.23690 | 53055 ft | 1015 kts | 75° |
| 2026-04-26 20:10 | 36.64626 | -8.15556 | 51722 ft | 998 kts | 65° |
| 2026-04-26 20:10 | 36.67866 | -8.08023 | 50379 ft | 978 kts | 55° |
| 2026-04-26 20:10 | 36.71756 | -8.01174 | 48942 ft | 957 kts | 57° |
| 2026-04-26 20:11 | 36.75274 | -7.94248 | 47492 ft | 935 kts | 56° |
| 2026-04-26 20:11 | 36.78832 | -7.87588 | 46000 ft | 910 kts | 56° |
| 2026-04-26 20:11 | 36.82243 | -7.81068 | 44453 ft | 884 kts | 58° |
| 2026-04-26 20:12 | 36.87485 | -7.67786 | 41267 ft | 823 kts | 64° |
| 2026-04-26 20:12 | 36.90306 | -7.61744 | 39886 ft | 788 kts | 53° |
| 2026-04-26 20:12 | 36.93415 | -7.56392 | 38529 ft | 756 kts | 58° |
| 2026-04-26 20:12 | 36.95641 | -7.50619 | 36953 ft | 723 kts | 71° |
| 2026-04-26 20:13 | 36.96726 | -7.44645 | 35487 ft | 690 kts | 85° |
| 2026-04-26 20:13 | 36.96666 | -7.38805 | 34085 ft | 657 kts | 99° |
| 2026-04-26 20:13 | 36.95521 | -7.33437 | 32541 ft | 625 kts | 114° |
| 2026-04-26 20:13 | 36.93420 | -7.28848 | 31052 ft | 594 kts | 129° |
| 2026-04-26 20:14 | 36.90558 | -7.25327 | 29563 ft | 568 kts | 146° |
| 2026-04-26 20:14 | 36.87145 | -7.23048 | 27989 ft | 550 kts | 161° |
| 2026-04-26 20:14 | 36.83519 | -7.21722 | 26451 ft | 537 kts | 167° |
| 2026-04-26 20:14 | 36.79916 | -7.20684 | 24968 ft | 526 kts | 168° |
| 2026-04-26 20:15 | 36.76410 | -7.19770 | 23566 ft | 517 kts | 169° |
| 2026-04-26 20:15 | 36.72908 | -7.18908 | 21944 ft | 509 kts | 170° |
| 2026-04-26 20:15 | 36.69419 | -7.18711 | 20436 ft | 500 kts | 188° |
| 2026-04-26 20:15 | 36.66058 | -7.19931 | 19034 ft | 505 kts | 206° |
| 2026-04-26 20:16 | 36.63221 | -7.22406 | 17585 ft | 496 kts | 225° |
| 2026-04-26 20:16 | 36.61224 | -7.25838 | 16096 ft | 488 kts | 244° |
| 2026-04-26 20:16 | 36.60466 | -7.28453 | 15149 ft | 483 kts | 257° |
| 2026-04-26 20:16 | 36.60058 | -7.32567 | 13733 ft | 476 kts | 266° |
| 2026-04-26 20:17 | 36.59928 | -7.36658 | 12182 ft | 470 kts | 268° |
| 2026-04-26 20:17 | 36.59873 | -7.42007 | 10214 ft | 463 kts | 273° |
| 2026-04-26 20:17 | 36.60637 | -7.45783 | 9827 ft | 435 kts | 298° |
| 2026-04-26 20:17 | 36.61720 | -7.47840 | 9939 ft | 414 kts | 311° |
| 2026-04-26 20:18 | 36.63688 | -7.50418 | 10003 ft | 418 kts | 317° |
| 2026-04-26 20:18 | 36.65790 | -7.52893 | 10068 ft | 414 kts | 318° |
| 2026-04-26 20:18 | 36.67939 | -7.55339 | 9371 ft | 417 kts | 319° |
| 2026-04-26 20:18 | 36.70075 | -7.57747 | 8601 ft | 411 kts | 319° |
| 2026-04-26 20:19 | 36.72186 | -7.60127 | 7847 ft | 407 kts | 320° |
| 2026-04-26 20:19 | 36.75366 | -7.62373 | 6875 ft | 394 kts | 349° |
| 2026-04-26 20:19 | 36.78050 | -7.62858 | 6158 ft | 387 kts | 357° |
| 2026-04-26 20:19 | 36.80708 | -7.63182 | 5403 ft | 381 kts | 357° |
| 2026-04-26 20:20 | 36.82447 | -7.63427 | 4909 ft | 377 kts | 355° |
| 2026-04-26 20:20 | 36.85000 | -7.63874 | 4398 ft | 363 kts | 354° |
| 2026-04-26 20:20 | 36.87426 | -7.64390 | 4181 ft | 344 kts | 351° |
| 2026-04-26 20:20 | 36.89705 | -7.65000 | 4081 ft | 326 kts | 348° |
| 2026-04-26 20:21 | 36.91735 | -7.66057 | 4056 ft | 311 kts | 330° |
| 2026-04-26 20:21 | 36.94247 | -7.67348 | 4030 ft | 283 kts | 351° |
| 2026-04-26 20:21 | 36.96130 | -7.67781 | 4023 ft | 268 kts | 351° |
| 2026-04-26 20:21 | 36.97297 | -7.68304 | 4017 ft | 265 kts | 328° |
| 2026-04-26 20:22 | 36.98505 | -7.70056 | 4062 ft | 275 kts | 292° |
| 2026-04-26 20:22 | 36.98714 | -7.72411 | 4101 ft | 277 kts | 256° |
| 2026-04-26 20:22 | 36.98083 | -7.74656 | 4080 ft | 279 kts | 255° |
| 2026-04-26 20:22 | 36.98083 | -7.77024 | 4011 ft | 269 kts | 290° |
| 2026-04-26 20:23 | 36.98705 | -7.79164 | 3961 ft | 257 kts | 288° |
| 2026-04-26 20:23 | 36.99123 | -7.81284 | 3905 ft | 243 kts | 283° |
| 2026-04-26 20:23 | 36.99489 | -7.83303 | 3827 ft | 232 kts | 285° |
| 2026-04-26 20:23 | 36.99762 | -7.85283 | 2994 ft | 240 kts | 277° |
| 2026-04-26 20:24 | 36.99980 | -7.87450 | 1426 ft | 264 kts | 281° |
| 2026-04-26 20:24 | 37.00341 | -7.89618 | 884 ft | 241 kts | 285° |
| 2026-04-26 20:24 | 37.00701 | -7.91571 | 503 ft | 219 kts | 285° |
| 2026-04-26 20:24 | 37.00969 | -7.93332 | 223 ft | 198 kts | 284° |
| 2026-04-26 20:25 | 37.01209 | -7.94930 | 90 ft | 176 kts | 282° |
| 2026-04-26 20:25 | 37.01358 | -7.95936 | 33 ft | 171 kts | 278° |
| 2026-04-26 20:25 | 37.01570 | -7.97474 | 25 ft | 78 kts | 280° |
| 2026-04-26 20:25 | 37.01623 | -7.97860 | 26 ft | 35 kts | 281° |
| 2026-04-26 20:26 | 37.01706 | -7.98113 | 28 ft | 24 kts | 302° |
| 2026-04-26 20:26 | 37.01770 | -7.98210 | 28 ft | 8 kts | 318° |
| 2026-04-26 20:26 | 37.01801 | -7.98225 | 27 ft | 0 kts | 342° |
| 2026-04-26 20:27 | 37.01820 | -7.98229 | 27 ft | 8 kts | 349° |
| 2026-04-26 20:27 | 37.01850 | -7.98200 | 27 ft | 4 kts | 68° |
| 2026-04-26 20:27 | 37.01848 | -7.98163 | 27 ft | 11 kts | 92° |
| 2026-04-26 20:28 | 37.01838 | -7.98065 | 27 ft | 12 kts | 99° |
| 2026-04-26 20:28 | 37.01823 | -7.97962 | 27 ft | 12 kts | 99° |
| 2026-04-26 20:28 | 37.01808 | -7.97858 | 27 ft | 12 kts | 100° |
| 2026-04-26 20:28 | 37.01793 | -7.97752 | 27 ft | 12 kts | 100° |
| 2026-04-26 20:29 | 37.01776 | -7.97632 | 27 ft | 17 kts | 100° |
| 2026-04-26 20:29 | 37.01755 | -7.97481 | 27 ft | 18 kts | 100° |
| 2026-04-26 20:29 | 37.01734 | -7.97327 | 27 ft | 19 kts | 100° |
| 2026-04-26 20:29 | 37.01711 | -7.97166 | 27 ft | 19 kts | 100° |
| 2026-04-26 20:30 | 37.01687 | -7.97007 | 27 ft | 16 kts | 101° |
| 2026-04-26 20:30 | 37.01735 | -7.96905 | 27 ft | 13 kts | 23° |
| 2026-04-26 20:30 | 37.01931 | -7.96974 | 27 ft | 0 kts | 10° |
| 2026-04-26 20:30 | 37.01932 | -7.96974 | 27 ft | 0 kts | 9° |
| 2026-04-26 20:36 | 37.01931 | -7.96974 | 27 ft | 0 kts | 9° |
| 2026-04-26 20:59 | 37.01930 | -7.96974 | 27 ft | 0 kts | 9° |
| 2026-04-26 21:33 | 37.01929 | -7.96974 | 27 ft | 0 kts | 9° |